Calabash, North Carolina
Current Conditions -  °F | °C
As of 12:53 PM on Monday 24 Nov 2014 (Local Time) from KCRE Reporting Station
Haze Haze  
Wind Chill: 66°   Ceiling: 200
Heat Index: 66°   Visibility: 0.75mi
Dew Point: 65°   Wind: 16mph
Humidity: 96%   Direction: 210°SSW
Pressure: 29.86"   Gusts: NA
Location:  33.89°N, 78.57°W
Report Text: KCRE 241753Z 21014KT 3/4SM BR VV002 19/18 A2986 RMK AO1 SLP111 60006 T01890183 10200 20178 58012
Loading
Personal Weather Stations






























Interactive Weather Map New forecast layout! Learn more

10-Day Weather Forecast

Advertisements
Track Severe Weather on mobile